sensor_id;sensor_type;location;lat;lon;timestamp;temperature;humidity
32027;DHT22;18543;50.848;4.596;2022-10-16T00:00:57;16.80;91.80
32027;DHT22;18543;50.848;4.596;2022-10-16T00:03:24;16.80;91.80
32027;DHT22;18543;50.848;4.596;2022-10-16T00:05:59;16.80;91.80
32027;DHT22;18543;50.848;4.596;2022-10-16T00:08:27;16.80;91.80
32027;DHT22;18543;50.848;4.596;2022-10-16T00:10:59;16.80;91.80
32027;DHT22;18543;50.848;4.596;2022-10-16T00:13:26;16.80;91.80
32027;DHT22;18543;50.848;4.596;2022-10-16T00:15:55;16.80;91.80
32027;DHT22;18543;50.848;4.596;2022-10-16T00:18:23;16.80;91.70
32027;DHT22;18543;50.848;4.596;2022-10-16T00:20:50;16.80;91.80
32027;DHT22;18543;50.848;4.596;2022-10-16T00:23:17;16.80;91.70
32027;DHT22;18543;50.848;4.596;2022-10-16T00:25:44;16.70;91.70
32027;DHT22;18543;50.848;4.596;2022-10-16T00:28:11;16.80;91.70
32027;DHT22;18543;50.848;4.596;2022-10-16T00:30:39;16.70;91.70
32027;DHT22;18543;50.848;4.596;2022-10-16T00:33:06;16.80;91.70
32027;DHT22;18543;50.848;4.596;2022-10-16T00:35:35;16.80;91.70
32027;DHT22;18543;50.848;4.596;2022-10-16T00:38:02;16.70;91.70
32027;DHT22;18543;50.848;4.596;2022-10-16T00:40:28;16.70;91.70
32027;DHT22;18543;50.848;4.596;2022-10-16T00:42:56;16.80;91.70
32027;DHT22;18543;50.848;4.596;2022-10-16T00:45:22;16.70;91.70
32027;DHT22;18543;50.848;4.596;2022-10-16T00:47:51;16.80;91.70
32027;DHT22;18543;50.848;4.596;2022-10-16T00:50:30;16.70;91.70
32027;DHT22;18543;50.848;4.596;2022-10-16T00:52:59;16.80;91.70
32027;DHT22;18543;50.848;4.596;2022-10-16T00:55:27;16.70;91.70
32027;DHT22;18543;50.848;4.596;2022-10-16T00:57:57;16.70;91.70
32027;DHT22;18543;50.848;4.596;2022-10-16T01:00:26;16.80;91.70
32027;DHT22;18543;50.848;4.596;2022-10-16T01:02:55;16.70;91.70
32027;DHT22;18543;50.848;4.596;2022-10-16T01:05:24;16.80;91.70
32027;DHT22;18543;50.848;4.596;2022-10-16T01:08:15;16.70;91.60
32027;DHT22;18543;50.848;4.596;2022-10-16T01:11:01;16.80;91.70
32027;DHT22;18543;50.848;4.596;2022-10-16T01:13:46;16.70;91.60
32027;DHT22;18543;50.848;4.596;2022-10-16T01:16:28;16.70;91.60
32027;DHT22;18543;50.848;4.596;2022-10-16T01:19:12;16.70;91.60
32027;DHT22;18543;50.848;4.596;2022-10-16T01:21:42;16.80;91.60
32027;DHT22;18543;50.848;4.596;2022-10-16T01:24:44;16.80;91.60
32027;DHT22;18543;50.848;4.596;2022-10-16T01:27:28;16.70;91.60
32027;DHT22;18543;50.848;4.596;2022-10-16T01:30:04;16.70;91.60
32027;DHT22;18543;50.848;4.596;2022-10-16T01:32:46;16.70;91.60
32027;DHT22;18543;50.848;4.596;2022-10-16T01:35:39;16.70;91.60
32027;DHT22;18543;50.848;4.596;2022-10-16T01:38:17;16.70;91.60
32027;DHT22;18543;50.848;4.596;2022-10-16T01:40:51;16.70;91.60
32027;DHT22;18543;50.848;4.596;2022-10-16T01:43:25;16.70;91.60
32027;DHT22;18543;50.848;4.596;2022-10-16T01:45:54;16.70;91.60
32027;DHT22;18543;50.848;4.596;2022-10-16T01:48:22;16.70;91.60
32027;DHT22;18543;50.848;4.596;2022-10-16T01:51:13;16.70;91.50
32027;DHT22;18543;50.848;4.596;2022-10-16T01:53:41;16.70;91.60
32027;DHT22;18543;50.848;4.596;2022-10-16T01:56:12;16.70;91.50
32027;DHT22;18543;50.848;4.596;2022-10-16T01:58:44;16.70;91.50
32027;DHT22;18543;50.848;4.596;2022-10-16T02:01:13;16.70;91.50
32027;DHT22;18543;50.848;4.596;2022-10-16T02:03:46;16.70;91.50
32027;DHT22;18543;50.848;4.596;2022-10-16T02:06:16;16.70;91.50
32027;DHT22;18543;50.848;4.596;2022-10-16T02:08:43;16.70;91.50
32027;DHT22;18543;50.848;4.596;2022-10-16T02:11:10;16.70;91.50
32027;DHT22;18543;50.848;4.596;2022-10-16T02:13:48;16.70;91.50
32027;DHT22;18543;50.848;4.596;2022-10-16T02:16:16;16.70;91.50
32027;DHT22;18543;50.848;4.596;2022-10-16T02:18:45;16.70;91.50
32027;DHT22;18543;50.848;4.596;2022-10-16T02:26:56;16.70;91.50
32027;DHT22;18543;50.848;4.596;2022-10-16T02:29:25;16.70;91.50
32027;DHT22;18543;50.848;4.596;2022-10-16T02:31:59;16.70;91.50
32027;DHT22;18543;50.848;4.596;2022-10-16T02:34:28;16.70;91.50
32027;DHT22;18543;50.848;4.596;2022-10-16T02:36:57;16.60;91.40
32027;DHT22;18543;50.848;4.596;2022-10-16T02:39:25;16.70;91.40
32027;DHT22;18543;50.848;4.596;2022-10-16T02:41:52;16.70;91.40
32027;DHT22;18543;50.848;4.596;2022-10-16T02:44:21;16.70;91.40
32027;DHT22;18543;50.848;4.596;2022-10-16T02:46:48;16.60;91.40
32027;DHT22;18543;50.848;4.596;2022-10-16T02:49:15;16.60;91.40
32027;DHT22;18543;50.848;4.596;2022-10-16T02:51:42;16.60;91.40
32027;DHT22;18543;50.848;4.596;2022-10-16T02:54:09;16.70;91.40
32027;DHT22;18543;50.848;4.596;2022-10-16T02:56:36;16.60;91.40
32027;DHT22;18543;50.848;4.596;2022-10-16T02:59:02;16.70;91.40
32027;DHT22;18543;50.848;4.596;2022-10-16T03:01:29;16.60;91.40
32027;DHT22;18543;50.848;4.596;2022-10-16T03:03:56;16.70;91.40
32027;DHT22;18543;50.848;4.596;2022-10-16T03:06:23;16.70;91.40
32027;DHT22;18543;50.848;4.596;2022-10-16T03:08:50;16.60;91.30
32027;DHT22;18543;50.848;4.596;2022-10-16T03:11:16;16.60;91.30
32027;DHT22;18543;50.848;4.596;2022-10-16T03:13:43;16.70;91.40
32027;DHT22;18543;50.848;4.596;2022-10-16T03:16:10;16.70;91.40
32027;DHT22;18543;50.848;4.596;2022-10-16T03:18:37;16.70;91.30
32027;DHT22;18543;50.848;4.596;2022-10-16T03:21:04;16.60;91.30
32027;DHT22;18543;50.848;4.596;2022-10-16T03:23:30;16.70;91.40
32027;DHT22;18543;50.848;4.596;2022-10-16T03:25:57;16.60;91.30
32027;DHT22;18543;50.848;4.596;2022-10-16T03:28:24;16.70;91.40
32027;DHT22;18543;50.848;4.596;2022-10-16T03:30:51;16.60;91.30
32027;DHT22;18543;50.848;4.596;2022-10-16T03:33:17;16.60;91.30
32027;DHT22;18543;50.848;4.596;2022-10-16T03:35:51;16.60;91.30
32027;DHT22;18543;50.848;4.596;2022-10-16T03:38:19;16.60;91.30
32027;DHT22;18543;50.848;4.596;2022-10-16T03:40:46;16.60;91.30
32027;DHT22;18543;50.848;4.596;2022-10-16T03:43:13;16.60;91.30
32027;DHT22;18543;50.848;4.596;2022-10-16T03:45:45;16.60;91.30
32027;DHT22;18543;50.848;4.596;2022-10-16T03:48:11;16.70;91.30
32027;DHT22;18543;50.848;4.596;2022-10-16T03:50:38;16.60;91.30
32027;DHT22;18543;50.848;4.596;2022-10-16T03:53:05;16.60;91.30
32027;DHT22;18543;50.848;4.596;2022-10-16T03:55:32;16.60;91.30
32027;DHT22;18543;50.848;4.596;2022-10-16T03:57:58;16.60;91.30
32027;DHT22;18543;50.848;4.596;2022-10-16T04:00:27;16.60;91.30
32027;DHT22;18543;50.848;4.596;2022-10-16T04:02:56;16.60;91.20
32027;DHT22;18543;50.848;4.596;2022-10-16T04:05:23;16.60;91.30
32027;DHT22;18543;50.848;4.596;2022-10-16T04:07:50;16.60;91.30
32027;DHT22;18543;50.848;4.596;2022-10-16T04:10:17;16.60;91.30
32027;DHT22;18543;50.848;4.596;2022-10-16T04:12:43;16.60;91.30
32027;DHT22;18543;50.848;4.596;2022-10-16T04:15:10;16.60;91.20
32027;DHT22;18543;50.848;4.596;2022-10-16T04:17:37;16.60;91.30
32027;DHT22;18543;50.848;4.596;2022-10-16T04:20:04;16.60;91.30
32027;DHT22;18543;50.848;4.596;2022-10-16T04:22:31;16.60;91.30
32027;DHT22;18543;50.848;4.596;2022-10-16T04:24:58;16.60;91.20
32027;DHT22;18543;50.848;4.596;2022-10-16T04:27:25;16.60;91.20
32027;DHT22;18543;50.848;4.596;2022-10-16T04:29:53;16.60;91.20
32027;DHT22;18543;50.848;4.596;2022-10-16T04:32:19;16.60;91.20
32027;DHT22;18543;50.848;4.596;2022-10-16T04:34:46;16.60;91.20
32027;DHT22;18543;50.848;4.596;2022-10-16T04:37:13;16.60;91.20
32027;DHT22;18543;50.848;4.596;2022-10-16T04:39:40;16.60;91.20
32027;DHT22;18543;50.848;4.596;2022-10-16T04:42:07;16.60;91.20
32027;DHT22;18543;50.848;4.596;2022-10-16T04:44:33;16.60;91.20
32027;DHT22;18543;50.848;4.596;2022-10-16T04:47:00;16.60;91.20
32027;DHT22;18543;50.848;4.596;2022-10-16T04:49:27;16.60;91.20
32027;DHT22;18543;50.848;4.596;2022-10-16T04:51:54;16.60;91.20
32027;DHT22;18543;50.848;4.596;2022-10-16T04:54:21;16.60;91.20
32027;DHT22;18543;50.848;4.596;2022-10-16T04:56:47;16.60;91.20
32027;DHT22;18543;50.848;4.596;2022-10-16T04:59:17;16.60;91.20
32027;DHT22;18543;50.848;4.596;2022-10-16T05:01:45;16.60;91.20
32027;DHT22;18543;50.848;4.596;2022-10-16T05:04:12;16.60;91.20
32027;DHT22;18543;50.848;4.596;2022-10-16T05:06:38;16.60;91.20
32027;DHT22;18543;50.848;4.596;2022-10-16T05:09:05;16.60;91.20
32027;DHT22;18543;50.848;4.596;2022-10-16T05:11:33;16.60;91.20
32027;DHT22;18543;50.848;4.596;2022-10-16T05:14:00;16.60;91.20
32027;DHT22;18543;50.848;4.596;2022-10-16T05:16:27;16.60;91.20
32027;DHT22;18543;50.848;4.596;2022-10-16T05:18:54;16.60;91.20
32027;DHT22;18543;50.848;4.596;2022-10-16T05:21:37;16.60;91.20
32027;DHT22;18543;50.848;4.596;2022-10-16T05:24:04;16.60;91.20
32027;DHT22;18543;50.848;4.596;2022-10-16T05:26:33;16.60;91.20
32027;DHT22;18543;50.848;4.596;2022-10-16T05:29:00;16.50;91.20
32027;DHT22;18543;50.848;4.596;2022-10-16T05:31:27;16.60;91.20
32027;DHT22;18543;50.848;4.596;2022-10-16T05:34:01;16.60;91.20
32027;DHT22;18543;50.848;4.596;2022-10-16T05:36:28;16.50;91.20
32027;DHT22;18543;50.848;4.596;2022-10-16T05:38:54;16.60;91.20
32027;DHT22;18543;50.848;4.596;2022-10-16T05:41:21;16.50;91.20
32027;DHT22;18543;50.848;4.596;2022-10-16T05:43:50;16.60;91.20
32027;DHT22;18543;50.848;4.596;2022-10-16T05:46:17;16.50;91.20
32027;DHT22;18543;50.848;4.596;2022-10-16T05:48:44;16.60;91.20
32027;DHT22;18543;50.848;4.596;2022-10-16T05:51:12;16.50;91.40
32027;DHT22;18543;50.848;4.596;2022-10-16T05:53:40;16.50;91.20
32027;DHT22;18543;50.848;4.596;2022-10-16T05:56:09;16.60;91.20
32027;DHT22;18543;50.848;4.596;2022-10-16T05:58:37;16.60;91.20
32027;DHT22;18543;50.848;4.596;2022-10-16T06:01:10;16.60;91.10
32027;DHT22;18543;50.848;4.596;2022-10-16T06:03:37;16.60;91.10
32027;DHT22;18543;50.848;4.596;2022-10-16T06:06:12;16.60;91.20
32027;DHT22;18543;50.848;4.596;2022-10-16T06:08:41;16.50;91.10
32027;DHT22;18543;50.848;4.596;2022-10-16T06:11:10;16.50;91.10
32027;DHT22;18543;50.848;4.596;2022-10-16T06:13:38;16.50;91.10
32027;DHT22;18543;50.848;4.596;2022-10-16T06:16:08;16.50;91.10
32027;DHT22;18543;50.848;4.596;2022-10-16T06:18:36;16.50;91.10
32027;DHT22;18543;50.848;4.596;2022-10-16T06:21:19;16.50;91.10
32027;DHT22;18543;50.848;4.596;2022-10-16T06:23:47;16.50;91.10
32027;DHT22;18543;50.848;4.596;2022-10-16T06:26:17;16.50;91.10
32027;DHT22;18543;50.848;4.596;2022-10-16T06:28:45;16.50;91.10
32027;DHT22;18543;50.848;4.596;2022-10-16T06:31:13;16.50;91.10
32027;DHT22;18543;50.848;4.596;2022-10-16T06:33:40;16.50;91.10
32027;DHT22;18543;50.848;4.596;2022-10-16T06:36:10;16.50;91.10
32027;DHT22;18543;50.848;4.596;2022-10-16T06:38:37;16.50;91.10
32027;DHT22;18543;50.848;4.596;2022-10-16T06:41:05;16.50;91.10
32027;DHT22;18543;50.848;4.596;2022-10-16T06:43:33;16.50;91.10
32027;DHT22;18543;50.848;4.596;2022-10-16T06:46:02;16.50;91.10
32027;DHT22;18543;50.848;4.596;2022-10-16T06:48:30;16.50;91.10
32027;DHT22;18543;50.848;4.596;2022-10-16T06:51:09;16.50;91.10
32027;DHT22;18543;50.848;4.596;2022-10-16T06:53:39;16.50;91.10
32027;DHT22;18543;50.848;4.596;2022-10-16T06:56:27;16.50;91.10
32027;DHT22;18543;50.848;4.596;2022-10-16T06:58:56;16.50;91.10
32027;DHT22;18543;50.848;4.596;2022-10-16T07:01:24;16.50;91.10
32027;DHT22;18543;50.848;4.596;2022-10-16T07:03:51;16.50;91.10
32027;DHT22;18543;50.848;4.596;2022-10-16T07:06:20;16.50;91.10
32027;DHT22;18543;50.848;4.596;2022-10-16T07:08:48;16.50;91.10
32027;DHT22;18543;50.848;4.596;2022-10-16T07:11:17;16.50;91.10
32027;DHT22;18543;50.848;4.596;2022-10-16T07:13:45;16.50;91.10
32027;DHT22;18543;50.848;4.596;2022-10-16T07:16:22;16.50;91.10
32027;DHT22;18543;50.848;4.596;2022-10-16T07:18:49;16.50;91.10
32027;DHT22;18543;50.848;4.596;2022-10-16T07:21:25;16.50;91.10
32027;DHT22;18543;50.848;4.596;2022-10-16T07:23:57;16.50;91.10
32027;DHT22;18543;50.848;4.596;2022-10-16T07:26:25;16.50;91.20
32027;DHT22;18543;50.848;4.596;2022-10-16T07:28:53;16.50;91.20
32027;DHT22;18543;50.848;4.596;2022-10-16T07:31:20;16.50;91.20
32027;DHT22;18543;50.848;4.596;2022-10-16T07:33:48;16.50;91.20
32027;DHT22;18543;50.848;4.596;2022-10-16T07:36:19;16.50;91.20
32027;DHT22;18543;50.848;4.596;2022-10-16T07:38:46;16.50;91.20
32027;DHT22;18543;50.848;4.596;2022-10-16T07:41:17;16.50;91.20
32027;DHT22;18543;50.848;4.596;2022-10-16T07:43:48;16.50;91.20
32027;DHT22;18543;50.848;4.596;2022-10-16T07:46:16;16.50;91.20
32027;DHT22;18543;50.848;4.596;2022-10-16T07:48:44;16.50;91.20
32027;DHT22;18543;50.848;4.596;2022-10-16T07:51:18;16.50;91.20
32027;DHT22;18543;50.848;4.596;2022-10-16T07:53:47;16.50;91.30
32027;DHT22;18543;50.848;4.596;2022-10-16T07:56:18;16.50;91.30
32027;DHT22;18543;50.848;4.596;2022-10-16T07:58:45;16.60;91.30
32027;DHT22;18543;50.848;4.596;2022-10-16T08:01:14;16.50;91.30
32027;DHT22;18543;50.848;4.596;2022-10-16T08:03:42;16.60;91.30
32027;DHT22;18543;50.848;4.596;2022-10-16T08:06:09;16.50;91.30
32027;DHT22;18543;50.848;4.596;2022-10-16T08:08:36;16.50;91.30
32027;DHT22;18543;50.848;4.596;2022-10-16T08:11:03;16.60;91.30
32027;DHT22;18543;50.848;4.596;2022-10-16T08:13:31;16.60;91.30
32027;DHT22;18543;50.848;4.596;2022-10-16T08:15:58;16.60;91.30
32027;DHT22;18543;50.848;4.596;2022-10-16T08:18:25;16.60;91.30
32027;DHT22;18543;50.848;4.596;2022-10-16T08:20:59;16.60;91.30
32027;DHT22;18543;50.848;4.596;2022-10-16T08:23:29;16.60;91.30
32027;DHT22;18543;50.848;4.596;2022-10-16T08:26:02;16.60;91.30
32027;DHT22;18543;50.848;4.596;2022-10-16T08:28:30;16.70;91.30
32027;DHT22;18543;50.848;4.596;2022-10-16T08:31:11;16.70;91.30
32027;DHT22;18543;50.848;4.596;2022-10-16T08:33:40;16.70;91.20
32027;DHT22;18543;50.848;4.596;2022-10-16T08:36:12;16.70;91.20
32027;DHT22;18543;50.848;4.596;2022-10-16T08:38:39;16.80;91.20
32027;DHT22;18543;50.848;4.596;2022-10-16T08:44:34;16.80;91.00
32027;DHT22;18543;50.848;4.596;2022-10-16T08:47:13;16.80;91.00
32027;DHT22;18543;50.848;4.596;2022-10-16T08:49:56;16.90;91.00
32027;DHT22;18543;50.848;4.596;2022-10-16T08:52:32;16.90;90.90
32027;DHT22;18543;50.848;4.596;2022-10-16T08:55:01;16.90;90.90
32027;DHT22;18543;50.848;4.596;2022-10-16T08:57:29;16.90;90.90
32027;DHT22;18543;50.848;4.596;2022-10-16T09:00:00;16.90;90.80
32027;DHT22;18543;50.848;4.596;2022-10-16T09:02:44;16.90;90.80
32027;DHT22;18543;50.848;4.596;2022-10-16T09:13:03;17.00;90.70
32027;DHT22;18543;50.848;4.596;2022-10-16T09:15:58;17.00;90.70
32027;DHT22;18543;50.848;4.596;2022-10-16T09:18:48;17.10;90.60
32027;DHT22;18543;50.848;4.596;2022-10-16T09:21:24;17.10;90.60
32027;DHT22;18543;50.848;4.596;2022-10-16T09:23:54;17.10;90.60
32027;DHT22;18543;50.848;4.596;2022-10-16T09:26:23;17.10;90.60
32027;DHT22;18543;50.848;4.596;2022-10-16T09:28:55;17.10;90.60
32027;DHT22;18543;50.848;4.596;2022-10-16T09:31:22;17.10;90.50
32027;DHT22;18543;50.848;4.596;2022-10-16T09:33:59;17.20;90.50
32027;DHT22;18543;50.848;4.596;2022-10-16T09:36:27;17.20;90.50
32027;DHT22;18543;50.848;4.596;2022-10-16T09:39:06;17.20;90.50
32027;DHT22;18543;50.848;4.596;2022-10-16T09:41:36;17.20;90.50
32027;DHT22;18543;50.848;4.596;2022-10-16T09:44:06;17.20;90.40
32027;DHT22;18543;50.848;4.596;2022-10-16T09:46:42;17.20;90.40
32027;DHT22;18543;50.848;4.596;2022-10-16T09:51:44;17.20;90.40
32027;DHT22;18543;50.848;4.596;2022-10-16T09:54:17;17.20;90.40
32027;DHT22;18543;50.848;4.596;2022-10-16T09:56:44;17.30;90.40
32027;DHT22;18543;50.848;4.596;2022-10-16T09:59:19;17.30;90.40
32027;DHT22;18543;50.848;4.596;2022-10-16T10:01:52;17.30;90.40
32027;DHT22;18543;50.848;4.596;2022-10-16T10:04:20;17.30;90.40
32027;DHT22;18543;50.848;4.596;2022-10-16T10:06:55;17.30;90.50
32027;DHT22;18543;50.848;4.596;2022-10-16T10:09:38;17.30;90.50
32027;DHT22;18543;50.848;4.596;2022-10-16T10:12:21;17.30;90.50
32027;DHT22;18543;50.848;4.596;2022-10-16T10:14:55;17.30;90.50
32027;DHT22;18543;50.848;4.596;2022-10-16T10:17:26;17.30;90.50
32027;DHT22;18543;50.848;4.596;2022-10-16T10:19:59;17.30;90.50
32027;DHT22;18543;50.848;4.596;2022-10-16T10:22:41;17.30;90.60
32027;DHT22;18543;50.848;4.596;2022-10-16T10:25:14;17.30;90.50
32027;DHT22;18543;50.848;4.596;2022-10-16T10:28:43;17.30;90.50
32027;DHT22;18543;50.848;4.596;2022-10-16T10:30:56;17.30;90.60
32027;DHT22;18543;50.848;4.596;2022-10-16T10:52:13;17.30;90.70
32027;DHT22;18543;50.848;4.596;2022-10-16T10:55:09;17.30;90.70
32027;DHT22;18543;50.848;4.596;2022-10-16T11:05:59;17.30;90.80
32027;DHT22;18543;50.848;4.596;2022-10-16T11:08:53;17.30;90.70
32027;DHT22;18543;50.848;4.596;2022-10-16T11:11:45;17.30;90.80
32027;DHT22;18543;50.848;4.596;2022-10-16T11:17:05;17.30;90.80
32027;DHT22;18543;50.848;4.596;2022-10-16T11:22:46;17.40;90.80
32027;DHT22;18543;50.848;4.596;2022-10-16T11:25:27;17.40;90.90
32027;DHT22;18543;50.848;4.596;2022-10-16T11:30:50;17.30;90.90
32027;DHT22;18543;50.848;4.596;2022-10-16T11:35:59;17.40;90.90
32027;DHT22;18543;50.848;4.596;2022-10-16T11:41:24;17.40;90.90
32027;DHT22;18543;50.848;4.596;2022-10-16T11:49:59;17.40;90.90
32027;DHT22;18543;50.848;4.596;2022-10-16T11:52:36;17.40;91.00
32027;DHT22;18543;50.848;4.596;2022-10-16T11:55:18;17.40;90.90
32027;DHT22;18543;50.848;4.596;2022-10-16T11:57:53;17.40;91.00
32027;DHT22;18543;50.848;4.596;2022-10-16T12:00:24;17.40;91.00
32027;DHT22;18543;50.848;4.596;2022-10-16T12:03:11;17.40;91.00
32027;DHT22;18543;50.848;4.596;2022-10-16T12:08:34;17.40;91.00
32027;DHT22;18543;50.848;4.596;2022-10-16T12:14:05;17.40;91.10
32027;DHT22;18543;50.848;4.596;2022-10-16T12:16:37;17.40;91.10
32027;DHT22;18543;50.848;4.596;2022-10-16T12:19:15;17.40;91.10
32027;DHT22;18543;50.848;4.596;2022-10-16T12:21:43;17.40;91.00
32027;DHT22;18543;50.848;4.596;2022-10-16T12:26:48;17.40;90.80
32027;DHT22;18543;50.848;4.596;2022-10-16T12:31:59;17.40;90.50
32027;DHT22;18543;50.848;4.596;2022-10-16T12:34:28;17.40;90.50
32027;DHT22;18543;50.848;4.596;2022-10-16T12:36:55;17.40;90.50
32027;DHT22;18543;50.848;4.596;2022-10-16T12:39:33;17.40;90.50
32027;DHT22;18543;50.848;4.596;2022-10-16T12:42:03;17.40;90.50
32027;DHT22;18543;50.848;4.596;2022-10-16T12:44:35;17.40;90.60
32027;DHT22;18543;50.848;4.596;2022-10-16T12:47:02;17.40;90.70
32027;DHT22;18543;50.848;4.596;2022-10-16T12:49:37;17.40;90.80
32027;DHT22;18543;50.848;4.596;2022-10-16T12:54:57;17.40;90.80
32027;DHT22;18543;50.848;4.596;2022-10-16T13:00:50;17.40;90.80
32027;DHT22;18543;50.848;4.596;2022-10-16T13:17:30;17.40;91.00
32027;DHT22;18543;50.848;4.596;2022-10-16T13:23:13;17.40;91.00
32027;DHT22;18543;50.848;4.596;2022-10-16T13:28:31;17.40;91.10
32027;DHT22;18543;50.848;4.596;2022-10-16T13:31:00;17.40;91.10
32027;DHT22;18543;50.848;4.596;2022-10-16T13:33:35;17.40;91.10
32027;DHT22;18543;50.848;4.596;2022-10-16T13:36:03;17.40;91.00
32027;DHT22;18543;50.848;4.596;2022-10-16T13:38:32;17.40;91.00
32027;DHT22;18543;50.848;4.596;2022-10-16T13:41:16;17.40;90.90
32027;DHT22;18543;50.848;4.596;2022-10-16T13:43:46;17.40;90.90
32027;DHT22;18543;50.848;4.596;2022-10-16T13:48:41;17.40;90.90
32027;DHT22;18543;50.848;4.596;2022-10-16T13:51:14;17.40;90.80
32027;DHT22;18543;50.848;4.596;2022-10-16T13:53:43;17.50;90.70
32027;DHT22;18543;50.848;4.596;2022-10-16T13:56:13;17.40;90.70
32027;DHT22;18543;50.848;4.596;2022-10-16T13:58:41;17.40;90.80
32027;DHT22;18543;50.848;4.596;2022-10-16T14:01:23;17.40;90.80
32027;DHT22;18543;50.848;4.596;2022-10-16T14:04:09;17.40;90.80
32027;DHT22;18543;50.848;4.596;2022-10-16T14:06:41;17.40;90.80
32027;DHT22;18543;50.848;4.596;2022-10-16T14:09:29;17.40;90.80
32027;DHT22;18543;50.848;4.596;2022-10-16T14:12:10;17.40;90.80
32027;DHT22;18543;50.848;4.596;2022-10-16T14:14:51;17.40;90.80
32027;DHT22;18543;50.848;4.596;2022-10-16T14:17:31;17.40;90.70
32027;DHT22;18543;50.848;4.596;2022-10-16T14:20:01;17.50;90.80
32027;DHT22;18543;50.848;4.596;2022-10-16T14:22:35;17.40;90.80
32027;DHT22;18543;50.848;4.596;2022-10-16T14:28:20;17.40;90.80
32027;DHT22;18543;50.848;4.596;2022-10-16T14:30:54;17.50;90.80
32027;DHT22;18543;50.848;4.596;2022-10-16T14:36:05;17.40;90.80
32027;DHT22;18543;50.848;4.596;2022-10-16T14:38:41;17.50;90.80
32027;DHT22;18543;50.848;4.596;2022-10-16T14:41:08;17.40;90.80
32027;DHT22;18543;50.848;4.596;2022-10-16T14:43:38;17.40;90.80
32027;DHT22;18543;50.848;4.596;2022-10-16T14:46:13;17.40;90.80
32027;DHT22;18543;50.848;4.596;2022-10-16T14:48:42;17.40;90.80
32027;DHT22;18543;50.848;4.596;2022-10-16T14:51:19;17.40;90.70
32027;DHT22;18543;50.848;4.596;2022-10-16T14:53:47;17.40;90.70
32027;DHT22;18543;50.848;4.596;2022-10-16T14:56:22;17.40;90.70
32027;DHT22;18543;50.848;4.596;2022-10-16T14:58:53;17.50;90.70
32027;DHT22;18543;50.848;4.596;2022-10-16T15:01:19;17.50;90.70
32027;DHT22;18543;50.848;4.596;2022-10-16T15:03:47;17.50;91.00
32027;DHT22;18543;50.848;4.596;2022-10-16T15:06:15;17.40;90.70
32027;DHT22;18543;50.848;4.596;2022-10-16T15:08:42;17.40;90.60
32027;DHT22;18543;50.848;4.596;2022-10-16T15:11:14;17.50;90.70
32027;DHT22;18543;50.848;4.596;2022-10-16T15:13:41;17.40;90.70
32027;DHT22;18543;50.848;4.596;2022-10-16T15:16:11;17.50;90.60
32027;DHT22;18543;50.848;4.596;2022-10-16T15:18:38;17.50;90.70
32027;DHT22;18543;50.848;4.596;2022-10-16T15:21:05;17.40;90.70
32027;DHT22;18543;50.848;4.596;2022-10-16T15:23:32;17.50;90.70
32027;DHT22;18543;50.848;4.596;2022-10-16T15:25:59;17.40;90.70
32027;DHT22;18543;50.848;4.596;2022-10-16T15:28:26;17.50;90.80
32027;DHT22;18543;50.848;4.596;2022-10-16T15:30:55;17.40;90.80
32027;DHT22;18543;50.848;4.596;2022-10-16T15:33:25;17.40;90.80
32027;DHT22;18543;50.848;4.596;2022-10-16T15:36:05;17.50;90.90
32027;DHT22;18543;50.848;4.596;2022-10-16T15:38:32;17.40;90.80
32027;DHT22;18543;50.848;4.596;2022-10-16T15:40:59;17.40;90.80
32027;DHT22;18543;50.848;4.596;2022-10-16T15:43:26;17.40;90.80
32027;DHT22;18543;50.848;4.596;2022-10-16T15:46:01;17.50;90.80
32027;DHT22;18543;50.848;4.596;2022-10-16T15:48:29;17.50;90.80
32027;DHT22;18543;50.848;4.596;2022-10-16T15:50:56;17.50;90.90
32027;DHT22;18543;50.848;4.596;2022-10-16T15:53:23;17.50;90.90
32027;DHT22;18543;50.848;4.596;2022-10-16T15:55:50;17.40;90.90
32027;DHT22;18543;50.848;4.596;2022-10-16T15:58:17;17.50;91.00
32027;DHT22;18543;50.848;4.596;2022-10-16T16:00:43;17.50;91.50
32027;DHT22;18543;50.848;4.596;2022-10-16T16:03:11;17.50;91.30
32027;DHT22;18543;50.848;4.596;2022-10-16T16:05:38;17.50;91.40
32027;DHT22;18543;50.848;4.596;2022-10-16T16:08:12;17.50;91.50
32027;DHT22;18543;50.848;4.596;2022-10-16T16:10:38;17.50;91.60
32027;DHT22;18543;50.848;4.596;2022-10-16T16:13:05;17.50;91.60
32027;DHT22;18543;50.848;4.596;2022-10-16T16:15:32;17.50;91.60
32027;DHT22;18543;50.848;4.596;2022-10-16T16:17:59;17.50;91.70
32027;DHT22;18543;50.848;4.596;2022-10-16T16:20:34;17.50;91.80
32027;DHT22;18543;50.848;4.596;2022-10-16T16:23:02;17.40;91.80
32027;DHT22;18543;50.848;4.596;2022-10-16T16:25:28;17.40;91.80
32027;DHT22;18543;50.848;4.596;2022-10-16T16:27:55;17.40;91.80
32027;DHT22;18543;50.848;4.596;2022-10-16T16:30:22;17.40;91.90
32027;DHT22;18543;50.848;4.596;2022-10-16T16:32:53;17.40;91.90
32027;DHT22;18543;50.848;4.596;2022-10-16T16:35:20;17.40;91.90
32027;DHT22;18543;50.848;4.596;2022-10-16T16:37:47;17.40;91.90
32027;DHT22;18543;50.848;4.596;2022-10-16T16:40:14;17.40;92.00
32027;DHT22;18543;50.848;4.596;2022-10-16T16:42:41;17.40;92.00
32027;DHT22;18543;50.848;4.596;2022-10-16T16:45:08;17.40;92.00
32027;DHT22;18543;50.848;4.596;2022-10-16T16:47:35;17.40;92.00
32027;DHT22;18543;50.848;4.596;2022-10-16T16:50:05;17.40;92.00
32027;DHT22;18543;50.848;4.596;2022-10-16T16:52:34;17.40;91.90
32027;DHT22;18543;50.848;4.596;2022-10-16T16:55:02;17.40;92.20
32027;DHT22;18543;50.848;4.596;2022-10-16T16:57:29;17.40;92.00
32027;DHT22;18543;50.848;4.596;2022-10-16T16:59:56;17.40;92.00
32027;DHT22;18543;50.848;4.596;2022-10-16T17:02:23;17.40;92.10
32027;DHT22;18543;50.848;4.596;2022-10-16T17:04:50;17.40;92.10
32027;DHT22;18543;50.848;4.596;2022-10-16T17:07:17;17.40;92.20
32027;DHT22;18543;50.848;4.596;2022-10-16T17:09:49;17.40;92.30
32027;DHT22;18543;50.848;4.596;2022-10-16T17:12:16;17.40;92.40
32027;DHT22;18543;50.848;4.596;2022-10-16T17:14:43;17.40;92.40
32027;DHT22;18543;50.848;4.596;2022-10-16T17:17:10;17.40;92.50
32027;DHT22;18543;50.848;4.596;2022-10-16T17:19:36;17.40;92.60
32027;DHT22;18543;50.848;4.596;2022-10-16T17:22:04;17.40;92.60
32027;DHT22;18543;50.848;4.596;2022-10-16T17:24:31;17.40;92.80
32027;DHT22;18543;50.848;4.596;2022-10-16T17:26:58;17.40;92.90
32027;DHT22;18543;50.848;4.596;2022-10-16T17:29:25;17.30;93.30
32027;DHT22;18543;50.848;4.596;2022-10-16T17:31:51;17.30;93.10
32027;DHT22;18543;50.848;4.596;2022-10-16T17:34:18;17.30;93.10
32027;DHT22;18543;50.848;4.596;2022-10-16T17:36:45;17.30;93.20
32027;DHT22;18543;50.848;4.596;2022-10-16T17:39:14;17.40;93.30
32027;DHT22;18543;50.848;4.596;2022-10-16T17:41:44;17.30;93.30
32027;DHT22;18543;50.848;4.596;2022-10-16T17:44:11;17.30;93.40